createdAt,value
2022-10-08T00:01:52.729Z,100956.30
2022-10-08T00:04:26.289Z,100960.93
2022-10-08T00:06:59.082Z,100958.59
2022-10-08T00:09:31.873Z,100953.27
2022-10-08T00:12:05.345Z,100954.06
2022-10-08T00:14:39.845Z,100942.51
2022-10-08T00:17:13.464Z,100942.32
2022-10-08T00:19:46.510Z,100944.84
2022-10-08T00:22:20.252Z,100951.63
2022-10-08T00:24:53.853Z,100951.44
2022-10-08T00:27:27.189Z,100952.66
2022-10-08T00:29:59.973Z,100945.13
2022-10-08T00:32:33.100Z,100949.86
2022-10-08T00:35:07.247Z,100950.97
2022-10-08T00:37:40.595Z,100951.11
2022-10-08T00:40:14.551Z,100942.08
2022-10-08T00:42:47.575Z,100943.58
2022-10-08T00:45:21.267Z,100936.05
2022-10-08T00:47:55.740Z,100935.44
2022-10-08T00:50:37.751Z,100926.59
2022-10-08T00:53:11.268Z,100926.41
2022-10-08T00:55:44.263Z,100925.00
2022-10-08T00:58:23.690Z,100927.02
2022-10-08T01:00:58.707Z,100930.27
2022-10-08T01:03:32.076Z,100929.77
2022-10-08T01:06:18.675Z,100932.89
2022-10-08T01:09:23.600Z,100931.67
2022-10-08T01:12:13.876Z,100930.37
2022-10-08T01:15:00.621Z,100924.23
2022-10-08T01:18:10.697Z,100936.02
2022-10-08T01:21:05.207Z,100934.20
2022-10-08T01:23:54.402Z,100926.66
2022-10-08T01:26:54.522Z,100924.23
2022-10-08T01:29:35.607Z,100921.14
2022-10-08T01:32:29.128Z,100921.75
2022-10-08T01:35:10.256Z,100920.66
2022-10-08T01:37:44.943Z,100923.98
2022-10-08T01:40:21.925Z,100920.47
2022-10-08T01:42:55.155Z,100916.45
2022-10-08T01:45:38.690Z,100909.02
2022-10-08T01:48:16.410Z,100916.86
2022-10-08T01:51:05.469Z,100915.46
2022-10-08T01:53:41.064Z,100920.41
2022-10-08T01:56:18.661Z,100916.38
2022-10-08T01:58:57.195Z,100920.50
2022-10-08T02:02:02.102Z,100918.52
2022-10-08T02:04:35.300Z,100918.70
2022-10-08T02:07:12.381Z,100916.91
2022-10-08T02:09:54.557Z,100906.77
2022-10-08T02:12:28.276Z,100917.23
2022-10-08T02:15:02.259Z,100908.55
2022-10-08T02:18:16.384Z,100915.70
2022-10-08T02:21:01.603Z,100914.39
2022-10-08T02:23:41.554Z,100912.58
2022-10-08T02:26:18.590Z,100917.81
2022-10-08T02:29:06.395Z,100912.58
2022-10-08T02:31:55.047Z,100916.08
2022-10-08T02:34:33.850Z,100914.71
2022-10-08T02:37:23.352Z,100915.09
2022-10-08T02:40:06.507Z,100915.92
2022-10-08T02:42:44.509Z,100915.09
2022-10-08T02:45:27.926Z,100915.73
2022-10-08T02:48:07.971Z,100916.33
2022-10-08T02:50:43.357Z,100915.62
2022-10-08T02:53:19.641Z,100920.17
2022-10-08T02:56:08.678Z,100922.08
2022-10-08T02:58:43.460Z,100921.78
2022-10-08T03:01:42.355Z,100927.12
2022-10-08T03:04:36.815Z,100924.22
2022-10-08T03:07:11.767Z,100926.84
2022-10-08T03:09:47.039Z,100923.41
2022-10-08T03:12:20.443Z,100926.14
2022-10-08T03:14:54.462Z,100929.76
2022-10-08T03:17:39.841Z,100933.89
2022-10-08T03:20:13.554Z,100932.14
2022-10-08T03:22:48.370Z,100932.52
2022-10-08T03:25:21.277Z,100934.72
2022-10-08T03:27:54.367Z,100933.62
2022-10-08T03:30:27.094Z,100932.01
2022-10-08T03:33:00.648Z,100938.33
2022-10-08T03:35:33.509Z,100938.23
2022-10-08T03:38:06.272Z,100930.19
2022-10-08T03:40:39.162Z,100936.92
2022-10-08T03:43:12.528Z,100932.69
2022-10-08T03:45:56.211Z,100941.34
2022-10-08T03:48:29.472Z,100936.50
2022-10-08T03:51:08.040Z,100929.18
2022-10-08T03:53:43.530Z,100938.02
2022-10-08T03:56:20.097Z,100934.09
2022-10-08T03:58:58.697Z,100928.87
2022-10-08T04:01:31.773Z,100930.48
2022-10-08T04:04:04.890Z,100922.86
2022-10-08T04:06:37.863Z,100916.49
2022-10-08T04:09:12.769Z,100925.16
2022-10-08T04:11:45.370Z,100927.25
2022-10-08T04:14:18.015Z,100926.45
2022-10-08T04:16:52.499Z,100925.63
2022-10-08T04:19:25.174Z,100927.45
2022-10-08T04:21:57.877Z,100932.16
2022-10-08T04:24:30.694Z,100939.52
2022-10-08T04:27:03.372Z,100937.39
2022-10-08T04:29:36.646Z,100933.68
2022-10-08T04:32:09.428Z,100937.53
2022-10-08T04:34:42.685Z,100932.11
2022-10-08T04:37:15.443Z,100930.08
2022-10-08T04:39:49.821Z,100932.01
2022-10-08T04:42:22.646Z,100933.94
2022-10-08T04:44:55.761Z,100927.19
2022-10-08T04:47:28.698Z,100922.38
2022-10-08T04:50:03.334Z,100928.50
2022-10-08T04:52:36.296Z,100928.02
2022-10-08T04:55:10.516Z,100929.31
2022-10-08T04:57:43.210Z,100930.06
2022-10-08T05:00:19.140Z,100938.11
2022-10-08T05:02:51.419Z,100931.88
2022-10-08T05:05:24.900Z,100937.41
2022-10-08T05:07:58.010Z,100930.66
2022-10-08T05:10:32.020Z,100927.94
2022-10-08T05:13:05.440Z,100933.67
2022-10-08T05:15:38.233Z,100940.19
2022-10-08T05:18:11.693Z,100936.25
2022-10-08T05:20:44.693Z,100934.03
2022-10-08T05:23:17.335Z,100931.02
2022-10-08T05:25:50.681Z,100934.50
2022-10-08T05:28:23.910Z,100932.59
2022-10-08T05:31:01.679Z,100934.09
2022-10-08T05:33:39.404Z,100940.32
2022-10-08T05:36:24.768Z,100936.91
2022-10-08T05:39:00.011Z,100941.53
2022-10-08T05:41:37.046Z,100941.80
2022-10-08T05:44:12.012Z,100947.52
2022-10-08T05:46:45.930Z,100943.17
2022-10-08T05:49:24.268Z,100936.78
2022-10-08T05:51:57.004Z,100936.14
2022-10-08T05:54:29.656Z,100932.03
2022-10-08T05:57:02.408Z,100922.53
2022-10-08T05:59:35.213Z,100923.38
2022-10-08T06:02:10.224Z,100916.07
2022-10-08T06:04:43.639Z,100917.16
2022-10-08T06:07:16.862Z,100914.34
2022-10-08T06:09:49.688Z,100918.01
2022-10-08T06:12:22.575Z,100916.01
2022-10-08T06:14:56.004Z,100916.93
2022-10-08T06:17:29.311Z,100916.86
2022-10-08T06:20:02.169Z,100909.34
2022-10-08T06:22:35.724Z,100909.31
2022-10-08T06:25:09.823Z,100914.16
2022-10-08T06:27:43.263Z,100904.67
2022-10-08T06:30:16.342Z,100916.25
2022-10-08T06:32:49.509Z,100908.45
2022-10-08T06:35:22.634Z,100906.17
2022-10-08T06:37:55.519Z,100903.06
2022-10-08T06:40:29.314Z,100895.06
2022-10-08T06:43:04.008Z,100894.36
2022-10-08T06:45:45.105Z,100892.38
2022-10-08T06:48:19.657Z,100894.67
2022-10-08T06:51:05.458Z,100893.95
2022-10-08T06:53:38.679Z,100890.25
2022-10-08T06:56:18.525Z,100889.13
2022-10-08T06:58:52.881Z,100883.09
2022-10-08T07:01:32.578Z,100885.82
2022-10-08T07:04:02.539Z,100869.63
2022-10-08T07:06:35.881Z,100874.13
2022-10-08T07:09:10.660Z,100871.13
2022-10-08T07:11:43.748Z,100875.23
2022-10-08T07:14:17.013Z,100872.25
2022-10-08T07:16:50.171Z,100866.98
2022-10-08T07:19:23.168Z,100859.05
2022-10-08T07:22:01.044Z,100863.73
2022-10-08T07:24:31.147Z,100863.19
2022-10-08T07:27:04.164Z,100868.81
2022-10-08T07:29:37.500Z,100862.06
2022-10-08T07:32:10.548Z,100862.34
2022-10-08T07:34:44.345Z,100864.75
2022-10-08T07:37:17.784Z,100862.68
2022-10-08T07:39:50.410Z,100864.45
2022-10-08T07:42:24.111Z,100862.75
2022-10-08T07:44:57.255Z,100859.32
2022-10-08T07:47:30.061Z,100856.39
2022-10-08T07:50:04.729Z,100851.69
2022-10-08T07:52:37.676Z,100850.70
2022-10-08T07:55:11.230Z,100846.16
2022-10-08T07:57:44.217Z,100851.72
2022-10-08T08:00:17.226Z,100849.34
2022-10-08T08:02:50.901Z,100850.33
2022-10-08T08:05:23.985Z,100849.14
2022-10-08T08:07:56.922Z,100840.43
2022-10-08T08:10:30.026Z,100845.53
2022-10-08T08:13:02.975Z,100840.39
2022-10-08T08:15:36.018Z,100836.75
2022-10-08T08:18:09.587Z,100824.30
2022-10-08T08:20:43.112Z,100831.20
2022-10-08T08:23:15.902Z,100836.23
2022-10-08T08:25:50.725Z,100833.78
2022-10-08T08:28:24.240Z,100826.87
2022-10-08T08:31:14.601Z,100821.22
2022-10-08T08:33:55.204Z,100821.41
2022-10-08T08:36:33.975Z,100824.17
2022-10-08T08:39:08.366Z,100823.89
2022-10-08T08:42:11.097Z,100820.94
2022-10-08T08:44:46.149Z,100826.86
2022-10-08T08:47:40.109Z,100818.34
2022-10-08T08:50:26.337Z,100811.97
2022-10-08T08:53:00.110Z,100813.56
2022-10-08T08:55:46.236Z,100809.34
2022-10-08T08:58:36.320Z,100801.09
2022-10-08T09:01:22.566Z,100811.89
2022-10-08T09:04:00.275Z,100805.45
2022-10-08T09:06:33.637Z,100796.38
2022-10-08T09:09:35.057Z,100801.00
2022-10-08T09:12:39.001Z,100793.75
2022-10-08T09:15:34.690Z,100787.74
2022-10-08T09:18:08.016Z,100783.45
2022-10-08T09:20:41.283Z,100785.31
2022-10-08T09:23:19.552Z,100787.14
2022-10-08T09:26:08.839Z,100778.48
2022-10-08T09:28:49.574Z,100776.33
2022-10-08T09:31:42.397Z,100773.36
2022-10-08T09:34:19.406Z,100773.88
2022-10-08T09:36:57.320Z,100778.76
2022-10-08T09:39:38.643Z,100770.39
2022-10-08T09:42:20.612Z,100763.78
2022-10-08T09:44:58.209Z,100763.34
2022-10-08T09:47:34.402Z,100754.15
2022-10-08T09:50:19.525Z,100751.61
2022-10-08T09:52:54.315Z,100745.11
2022-10-08T09:55:34.936Z,100747.80
2022-10-08T09:58:12.649Z,100734.63
2022-10-08T10:00:45.873Z,100731.05
2022-10-08T10:03:19.684Z,100729.29
2022-10-08T10:05:55.255Z,100726.30
2022-10-08T10:08:46.953Z,100724.11
2022-10-08T10:11:55.207Z,100720.58
2022-10-08T10:14:46.689Z,100723.70
2022-10-08T10:17:42.919Z,100725.58
2022-10-08T10:20:43.222Z,100721.33
2022-10-08T10:23:26.549Z,100715.35
2022-10-08T10:26:12.775Z,100712.02
2022-10-08T10:28:49.984Z,100714.84
2022-10-08T10:31:38.295Z,100714.41
2022-10-08T10:34:34.936Z,100703.70
2022-10-08T10:37:25.953Z,100707.56
2022-10-08T10:40:20.644Z,100702.13
2022-10-08T10:43:31.066Z,100696.64
2022-10-08T10:46:14.505Z,100691.73
2022-10-08T10:48:48.349Z,100689.59
2022-10-08T10:51:34.956Z,100673.47
2022-10-08T10:54:33.145Z,100678.17
2022-10-08T10:57:22.267Z,100667.39
2022-10-08T11:00:25.309Z,100668.16
2022-10-08T11:03:05.919Z,100667.02
2022-10-08T11:05:39.689Z,100657.86
2022-10-08T11:08:41.626Z,100662.76
2022-10-08T11:11:32.343Z,100659.67
2022-10-08T11:14:35.578Z,100644.76
2022-10-08T11:17:31.115Z,100654.47
2022-10-08T11:20:14.929Z,100646.53
2022-10-08T11:23:16.687Z,100638.09
2022-10-08T11:26:20.766Z,100646.44
2022-10-08T11:28:47.363Z,100639.38
2022-10-08T11:31:29.636Z,100637.17
2022-10-08T11:34:04.092Z,100637.66
2022-10-08T11:36:41.839Z,100628.92
2022-10-08T11:39:45.171Z,100624.52
2022-10-08T11:42:52.775Z,100623.68
2022-10-08T11:45:36.887Z,100624.13
2022-10-08T11:48:34.354Z,100619.31
2022-10-08T11:51:27.534Z,100608.73
2022-10-08T11:54:14.050Z,100609.21
2022-10-08T11:56:50.320Z,100602.95
2022-10-08T11:59:39.943Z,100600.34
2022-10-08T12:02:36.873Z,100599.51
2022-10-08T12:05:26.391Z,100595.09
2022-10-08T12:08:06.649Z,100599.51
2022-10-08T12:10:42.010Z,100591.12
2022-10-08T12:13:29.022Z,100582.39
2022-10-08T12:16:04.541Z,100587.20
2022-10-08T12:18:45.629Z,100592.55
2022-10-08T12:21:25.730Z,100584.69
2022-10-08T12:23:58.987Z,100581.64
2022-10-08T12:26:32.022Z,100570.22
2022-10-08T12:29:05.001Z,100568.05
2022-10-08T12:31:40.056Z,100564.52
2022-10-08T12:34:22.568Z,100571.19
2022-10-08T12:37:01.969Z,100565.05
2022-10-08T12:39:48.282Z,100566.41
2022-10-08T12:42:29.280Z,100563.38
2022-10-08T12:45:27.818Z,100559.40
2022-10-08T12:48:25.415Z,100556.27
2022-10-08T12:51:25.534Z,100552.25
2022-10-08T12:53:58.571Z,100553.05
2022-10-08T12:56:32.419Z,100549.08
2022-10-08T12:59:06.570Z,100537.17
2022-10-08T13:01:41.825Z,100551.20
2022-10-08T13:04:33.331Z,100549.03
2022-10-08T13:07:10.801Z,100544.14
2022-10-08T13:09:46.088Z,100547.62
2022-10-08T13:12:18.921Z,100542.30
2022-10-08T13:15:06.660Z,100536.51
2022-10-08T13:17:40.436Z,100530.69
2022-10-08T13:20:22.144Z,100524.47
2022-10-08T13:22:55.001Z,100523.52
2022-10-08T13:25:41.088Z,100520.82
2022-10-08T13:28:41.705Z,100513.27
2022-10-08T13:30:58.975Z,100508.38
2022-10-08T13:33:32.342Z,100511.34
2022-10-08T13:36:05.260Z,100507.33
2022-10-08T13:38:38.688Z,100509.53
2022-10-08T13:41:13.339Z,100503.27
2022-10-08T13:43:49.042Z,100504.95
2022-10-08T13:46:22.000Z,100504.51
2022-10-08T13:48:55.159Z,100500.81
2022-10-08T13:51:27.980Z,100503.80
2022-10-08T13:54:01.650Z,100503.72
2022-10-08T13:56:35.310Z,100507.64
2022-10-08T13:59:09.764Z,100503.63
2022-10-08T14:01:41.721Z,100496.89
2022-10-08T14:04:15.803Z,100497.20
2022-10-08T14:06:52.407Z,100499.23
2022-10-08T14:09:28.782Z,100495.13
2022-10-08T14:12:04.883Z,100500.72
2022-10-08T14:14:39.074Z,100509.04
2022-10-08T14:17:12.140Z,100510.27
2022-10-08T14:19:45.649Z,100511.89
2022-10-08T14:22:19.340Z,100506.41
2022-10-08T14:24:53.023Z,100504.95
2022-10-08T14:27:25.795Z,100502.13
2022-10-08T14:29:58.875Z,100507.22
2022-10-08T14:32:31.705Z,100506.14
2022-10-08T14:35:06.531Z,100499.82
2022-10-08T14:37:39.967Z,100500.03
2022-10-08T14:40:17.878Z,100497.67
2022-10-08T14:42:51.648Z,100497.03
2022-10-08T14:45:25.083Z,100497.17
2022-10-08T14:47:58.107Z,100505.33
2022-10-08T14:50:31.514Z,100501.52
2022-10-08T14:53:04.702Z,100504.79
2022-10-08T14:56:00.596Z,100506.34
2022-10-08T14:58:13.032Z,100508.31
2022-10-08T15:00:46.197Z,100511.52
2022-10-08T15:03:19.369Z,100506.90
2022-10-08T15:05:54.012Z,100512.36
2022-10-08T15:08:29.064Z,100509.05
2022-10-08T15:11:04.490Z,100510.98
2022-10-08T15:13:37.428Z,100508.98
2022-10-08T15:16:15.065Z,100507.84
2022-10-08T15:18:48.288Z,100513.81
2022-10-08T15:21:21.720Z,100510.12
2022-10-08T15:23:59.329Z,100506.83
2022-10-08T15:26:32.600Z,100507.03
2022-10-08T15:29:05.738Z,100515.59
2022-10-08T15:31:39.098Z,100513.62
2022-10-08T15:34:18.121Z,100516.48
2022-10-08T15:36:52.484Z,100517.16
2022-10-08T15:39:25.467Z,100518.30
2022-10-08T15:41:59.967Z,100516.81
2022-10-08T15:44:33.745Z,100522.66
2022-10-08T15:47:10.353Z,100521.53
2022-10-08T15:49:47.172Z,100520.90
2022-10-08T15:52:23.468Z,100523.69
2022-10-08T15:54:56.411Z,100526.08
2022-10-08T15:57:29.825Z,100525.92
2022-10-08T16:00:03.303Z,100531.00
2022-10-08T16:02:37.874Z,100532.47
2022-10-08T16:05:11.322Z,100532.21
2022-10-08T16:07:46.157Z,100533.77
2022-10-08T16:10:19.171Z,100541.48
2022-10-08T16:12:53.823Z,100540.03
2022-10-08T16:15:26.730Z,100540.33
2022-10-08T16:18:01.485Z,100540.14
2022-10-08T16:20:36.092Z,100546.95
2022-10-08T16:23:09.816Z,100547.58
2022-10-08T16:25:45.610Z,100546.56
2022-10-08T16:28:19.137Z,100549.78
2022-10-08T16:30:52.161Z,100553.56
2022-10-08T16:33:26.395Z,100554.68
2022-10-08T16:36:03.638Z,100555.36
2022-10-08T16:38:41.916Z,100553.78
2022-10-08T16:41:27.700Z,100555.39
2022-10-08T16:44:13.360Z,100564.46
2022-10-08T16:46:50.879Z,100563.43
2022-10-08T16:49:27.812Z,100566.31
2022-10-08T16:52:04.970Z,100564.41
2022-10-08T16:54:37.676Z,100564.27
2022-10-08T16:57:10.802Z,100561.36
2022-10-08T16:59:44.138Z,100554.52
2022-10-08T17:02:17.494Z,100553.88
2022-10-08T17:04:51.275Z,100549.80
2022-10-08T17:07:24.287Z,100547.95
2022-10-08T17:09:57.757Z,100545.64
2022-10-08T17:12:31.165Z,100547.73
2022-10-08T17:15:04.624Z,100537.90
2022-10-08T17:17:39.017Z,100540.31
2022-10-08T17:20:12.182Z,100537.08
2022-10-08T17:22:45.185Z,100542.20
2022-10-08T17:25:19.427Z,100535.95
2022-10-08T17:27:52.363Z,100529.30
2022-10-08T17:30:25.705Z,100528.34
2022-10-08T17:32:58.834Z,100525.26
2022-10-08T17:35:32.241Z,100524.13
2022-10-08T17:38:05.156Z,100520.47
2022-10-08T17:40:38.268Z,100518.19
2022-10-08T17:43:12.051Z,100511.94
2022-10-08T17:45:45.189Z,100513.68
2022-10-08T17:48:17.890Z,100507.04
2022-10-08T17:50:51.169Z,100511.41
2022-10-08T17:53:24.737Z,100510.84
2022-10-08T17:56:06.187Z,100508.98
2022-10-08T17:58:39.770Z,100507.11
2022-10-08T18:01:16.677Z,100506.96
2022-10-08T18:03:56.341Z,100512.49
2022-10-08T18:06:30.753Z,100505.01
2022-10-08T18:09:07.884Z,100501.84
2022-10-08T18:11:44.979Z,100504.47
2022-10-08T18:14:18.020Z,100502.13
2022-10-08T18:16:51.274Z,100507.66
2022-10-08T18:19:24.563Z,100507.52
2022-10-08T18:21:59.157Z,100509.98
2022-10-08T18:24:33.186Z,100508.95
2022-10-08T18:27:06.365Z,100504.45
2022-10-08T18:29:39.900Z,100515.72
2022-10-08T18:32:14.695Z,100515.58
2022-10-08T18:34:47.462Z,100511.87
2022-10-08T18:37:21.014Z,100509.53
2022-10-08T18:39:54.064Z,100513.31
2022-10-08T18:42:27.376Z,100518.09
2022-10-08T18:45:00.325Z,100515.33
2022-10-08T18:47:34.329Z,100517.80
2022-10-08T18:50:09.140Z,100508.84
2022-10-08T18:52:41.919Z,100509.20
2022-10-08T18:55:14.928Z,100509.89
2022-10-08T18:57:47.766Z,100512.83
2022-10-08T19:00:20.861Z,100503.42
2022-10-08T19:02:56.604Z,100508.05
2022-10-08T19:05:29.600Z,100502.14
2022-10-08T19:08:02.454Z,100499.02
2022-10-08T19:10:35.416Z,100505.12
2022-10-08T19:13:09.068Z,100503.38
2022-10-08T19:15:42.699Z,100499.38
2022-10-08T19:18:15.564Z,100497.52
2022-10-08T19:20:48.452Z,100492.66
2022-10-08T19:23:21.223Z,100494.31
2022-10-08T19:25:57.107Z,100491.11
2022-10-08T19:28:30.305Z,100489.34
2022-10-08T19:31:03.296Z,100484.48
2022-10-08T19:33:36.986Z,100491.46
2022-10-08T19:36:10.869Z,100478.27
2022-10-08T19:38:43.962Z,100480.39
2022-10-08T19:41:16.858Z,100483.36
2022-10-08T19:43:50.172Z,100488.53
2022-10-08T19:46:24.221Z,100485.75
2022-10-08T19:49:02.900Z,100493.62
2022-10-08T19:51:37.185Z,100485.75
2022-10-08T19:54:09.962Z,100481.81
2022-10-08T19:56:43.455Z,100485.67
2022-10-08T19:59:17.717Z,100483.05
2022-10-08T20:01:50.441Z,100483.39
2022-10-08T20:04:24.291Z,100483.23
2022-10-08T20:07:00.083Z,100480.03
2022-10-08T20:09:34.759Z,100482.66
2022-10-08T20:12:08.420Z,100484.89
2022-10-08T20:14:41.866Z,100479.15
2022-10-08T20:17:15.917Z,100482.58
2022-10-08T20:19:49.451Z,100487.67
2022-10-08T20:22:22.496Z,100483.11
2022-10-08T20:24:55.473Z,100479.10
2022-10-08T20:27:28.324Z,100482.03
2022-10-08T20:30:01.168Z,100478.86
2022-10-08T20:32:34.387Z,100476.16
2022-10-08T20:35:09.176Z,100468.14
2022-10-08T20:37:41.989Z,100464.55
2022-10-08T20:40:16.630Z,100461.77
2022-10-08T20:42:50.938Z,100457.84
2022-10-08T20:45:24.025Z,100453.33
2022-10-08T20:47:57.843Z,100457.10
2022-10-08T20:50:30.625Z,100456.13
2022-10-08T20:53:03.412Z,100456.44
2022-10-08T20:55:39.897Z,100450.58
2022-10-08T20:58:12.643Z,100450.49
2022-10-08T21:00:45.940Z,100450.33
2022-10-08T21:03:18.965Z,100450.22
2022-10-08T21:05:53.680Z,100450.64
2022-10-08T21:08:27.498Z,100444.09
2022-10-08T21:11:04.626Z,100447.94
2022-10-08T21:13:38.270Z,100444.31
2022-10-08T21:16:20.860Z,100439.92
2022-10-08T21:18:59.877Z,100428.94
2022-10-08T21:21:34.488Z,100437.69
2022-10-08T21:24:08.269Z,100439.08
2022-10-08T21:26:43.224Z,100444.89
2022-10-08T21:29:16.647Z,100438.34
2022-10-08T21:31:49.624Z,100437.04
2022-10-08T21:34:22.696Z,100437.04
2022-10-08T21:36:55.540Z,100428.37
2022-10-08T21:39:28.390Z,100431.80
2022-10-08T21:42:01.246Z,100428.37
2022-10-08T21:44:36.325Z,100432.80
2022-10-08T21:47:09.114Z,100420.70
2022-10-08T21:49:41.866Z,100420.70
2022-10-08T21:52:14.597Z,100422.39
2022-10-08T21:54:47.376Z,100420.00
2022-10-08T21:57:20.272Z,100425.51
2022-10-08T21:59:52.984Z,100419.27
2022-10-08T22:02:25.919Z,100415.84
2022-10-08T22:04:58.934Z,100416.34
2022-10-08T22:07:33.538Z,100416.34
2022-10-08T22:10:07.369Z,100412.88
2022-10-08T22:12:41.036Z,100404.05
2022-10-08T22:15:14.703Z,100415.76
2022-10-08T22:17:47.456Z,100412.25
2022-10-08T22:20:20.860Z,100401.69
2022-10-08T22:22:53.817Z,100400.77
2022-10-08T22:25:27.305Z,100398.65
2022-10-08T22:28:00.171Z,100403.89
2022-10-08T22:30:38.956Z,100397.42
2022-10-08T22:33:11.616Z,100403.16
2022-10-08T22:35:45.632Z,100399.61
2022-10-08T22:38:18.494Z,100396.99
2022-10-08T22:40:51.540Z,100397.50
2022-10-08T22:43:24.393Z,100394.06
2022-10-08T22:45:57.522Z,100395.45
2022-10-08T22:48:30.960Z,100393.30
2022-10-08T22:51:09.939Z,100394.61
2022-10-08T22:53:43.330Z,100386.36
2022-10-08T22:56:22.688Z,100384.98
2022-10-08T22:58:56.191Z,100382.27
2022-10-08T23:01:30.542Z,100384.48
2022-10-08T23:04:02.392Z,100383.59
2022-10-08T23:06:36.212Z,100384.89
2022-10-08T23:09:13.054Z,100385.20
2022-10-08T23:11:46.848Z,100380.31
2022-10-08T23:14:19.716Z,100378.50
2022-10-08T23:16:52.654Z,100374.91
2022-10-08T23:19:25.614Z,100374.98
2022-10-08T23:21:59.203Z,100372.29
2022-10-08T23:24:31.978Z,100371.41
2022-10-08T23:27:08.844Z,100367.47
2022-10-08T23:29:39.341Z,100366.50
2022-10-08T23:32:12.851Z,100360.69
2022-10-08T23:34:46.938Z,100361.34
2022-10-08T23:37:19.793Z,100359.48
2022-10-08T23:39:57.711Z,100354.63
2022-10-08T23:42:27.177Z,100354.63
2022-10-08T23:45:00.032Z,100351.20
2022-10-08T23:47:33.218Z,100345.00
2022-10-08T23:50:11.078Z,100340.98
2022-10-08T23:52:44.160Z,100338.67
2022-10-08T23:55:17.397Z,100332.89
2022-10-08T23:57:50.222Z,100335.86
